sensor_id;sensor_type;location;lat;lon;timestamp;P1;durP1;ratioP1;P2;durP2;ratioP2
66487;SDS011;53304;54.550;18.526;2023-03-29T00:01:33;6.50;;;2.90;;
66487;SDS011;53304;54.550;18.526;2023-03-29T00:04:00;7.60;;;2.63;;
66487;SDS011;53304;54.550;18.526;2023-03-29T00:06:31;6.38;;;2.72;;
66487;SDS011;53304;54.550;18.526;2023-03-29T00:08:57;7.07;;;2.75;;
66487;SDS011;53304;54.550;18.526;2023-03-29T00:11:23;9.65;;;3.15;;
66487;SDS011;53304;54.550;18.526;2023-03-29T00:13:51;6.30;;;2.58;;
66487;SDS011;53304;54.550;18.526;2023-03-29T00:16:17;6.85;;;3.08;;
66487;SDS011;53304;54.550;18.526;2023-03-29T00:18:47;5.05;;;2.58;;
66487;SDS011;53304;54.550;18.526;2023-03-29T00:21:16;7.35;;;3.25;;
66487;SDS011;53304;54.550;18.526;2023-03-29T00:23:41;6.53;;;2.65;;
66487;SDS011;53304;54.550;18.526;2023-03-29T00:26:07;6.18;;;2.50;;
66487;SDS011;53304;54.550;18.526;2023-03-29T00:28:32;7.35;;;3.00;;
66487;SDS011;53304;54.550;18.526;2023-03-29T00:31:04;6.30;;;2.60;;
66487;SDS011;53304;54.550;18.526;2023-03-29T00:33:36;5.10;;;2.50;;
66487;SDS011;53304;54.550;18.526;2023-03-29T00:36:02;5.32;;;2.47;;
66487;SDS011;53304;54.550;18.526;2023-03-29T00:38:31;5.57;;;2.50;;
66487;SDS011;53304;54.550;18.526;2023-03-29T00:40:57;12.50;;;2.50;;
66487;SDS011;53304;54.550;18.526;2023-03-29T00:43:27;5.68;;;2.47;;
66487;SDS011;53304;54.550;18.526;2023-03-29T00:45:55;5.35;;;2.40;;
66487;SDS011;53304;54.550;18.526;2023-03-29T00:48:25;8.40;;;2.55;;
66487;SDS011;53304;54.550;18.526;2023-03-29T00:51:02;6.22;;;2.40;;
66487;SDS011;53304;54.550;18.526;2023-03-29T00:53:34;5.20;;;2.25;;
66487;SDS011;53304;54.550;18.526;2023-03-29T00:56:16;5.25;;;2.40;;
66487;SDS011;53304;54.550;18.526;2023-03-29T00:59:04;4.65;;;2.33;;
66487;SDS011;53304;54.550;18.526;2023-03-29T01:04:24;5.95;;;2.30;;
66487;SDS011;53304;54.550;18.526;2023-03-29T01:09:27;5.95;;;2.20;;
66487;SDS011;53304;54.550;18.526;2023-03-29T01:11:55;5.45;;;2.45;;
66487;SDS011;53304;54.550;18.526;2023-03-29T01:14:28;4.88;;;2.20;;
66487;SDS011;53304;54.550;18.526;2023-03-29T01:17:15;4.53;;;2.05;;
66487;SDS011;53304;54.550;18.526;2023-03-29T01:19:42;5.00;;;2.25;;
66487;SDS011;53304;54.550;18.526;2023-03-29T01:25:06;4.30;;;2.20;;
66487;SDS011;53304;54.550;18.526;2023-03-29T01:27:48;6.18;;;2.25;;
66487;SDS011;53304;54.550;18.526;2023-03-29T01:33:15;4.40;;;1.98;;
66487;SDS011;53304;54.550;18.526;2023-03-29T01:35:53;4.97;;;2.20;;
66487;SDS011;53304;54.550;18.526;2023-03-29T01:38:33;5.85;;;2.30;;
66487;SDS011;53304;54.550;18.526;2023-03-29T01:41:02;4.95;;;2.13;;
66487;SDS011;53304;54.550;18.526;2023-03-29T01:48:48;5.03;;;1.85;;
66487;SDS011;53304;54.550;18.526;2023-03-29T01:51:29;4.90;;;1.90;;
66487;SDS011;53304;54.550;18.526;2023-03-29T01:56:27;5.93;;;2.15;;
66487;SDS011;53304;54.550;18.526;2023-03-29T01:58:57;3.90;;;2.03;;
66487;SDS011;53304;54.550;18.526;2023-03-29T02:01:32;5.13;;;2.00;;
66487;SDS011;53304;54.550;18.526;2023-03-29T02:04:00;4.95;;;1.73;;
66487;SDS011;53304;54.550;18.526;2023-03-29T02:06:28;6.50;;;2.05;;
66487;SDS011;53304;54.550;18.526;2023-03-29T02:08:55;3.45;;;1.90;;
66487;SDS011;53304;54.550;18.526;2023-03-29T02:11:22;4.35;;;2.00;;
66487;SDS011;53304;54.550;18.526;2023-03-29T02:13:51;3.97;;;1.83;;
66487;SDS011;53304;54.550;18.526;2023-03-29T02:16:18;3.70;;;1.95;;
66487;SDS011;53304;54.550;18.526;2023-03-29T02:18:49;3.78;;;1.80;;
66487;SDS011;53304;54.550;18.526;2023-03-29T02:21:23;4.65;;;2.10;;
66487;SDS011;53304;54.550;18.526;2023-03-29T02:23:50;3.30;;;1.90;;
66487;SDS011;53304;54.550;18.526;2023-03-29T02:26:21;3.97;;;1.80;;
66487;SDS011;53304;54.550;18.526;2023-03-29T02:28:50;3.47;;;1.75;;
66487;SDS011;53304;54.550;18.526;2023-03-29T02:36:43;4.60;;;1.80;;
66487;SDS011;53304;54.550;18.526;2023-03-29T02:39:11;4.28;;;1.67;;
66487;SDS011;53304;54.550;18.526;2023-03-29T02:41:41;4.10;;;1.95;;
66487;SDS011;53304;54.550;18.526;2023-03-29T02:44:09;5.28;;;2.10;;
66487;SDS011;53304;54.550;18.526;2023-03-29T02:46:38;3.45;;;1.50;;
66487;SDS011;53304;54.550;18.526;2023-03-29T02:49:10;4.57;;;1.75;;
66487;SDS011;53304;54.550;18.526;2023-03-29T02:51:38;3.83;;;1.70;;
66487;SDS011;53304;54.550;18.526;2023-03-29T02:54:14;3.67;;;1.67;;
66487;SDS011;53304;54.550;18.526;2023-03-29T02:56:46;4.47;;;1.75;;
66487;SDS011;53304;54.550;18.526;2023-03-29T02:59:32;4.40;;;1.75;;
66487;SDS011;53304;54.550;18.526;2023-03-29T03:02:02;4.22;;;1.80;;
66487;SDS011;53304;54.550;18.526;2023-03-29T03:04:29;5.00;;;1.98;;
66487;SDS011;53304;54.550;18.526;2023-03-29T03:06:55;4.13;;;2.00;;
66487;SDS011;53304;54.550;18.526;2023-03-29T03:09:21;3.72;;;1.77;;
66487;SDS011;53304;54.550;18.526;2023-03-29T03:11:49;4.22;;;1.60;;
66487;SDS011;53304;54.550;18.526;2023-03-29T03:14:15;4.68;;;1.40;;
66487;SDS011;53304;54.550;18.526;2023-03-29T03:16:45;3.50;;;1.70;;
66487;SDS011;53304;54.550;18.526;2023-03-29T03:19:11;4.78;;;1.75;;
66487;SDS011;53304;54.550;18.526;2023-03-29T03:21:39;4.90;;;1.85;;
66487;SDS011;53304;54.550;18.526;2023-03-29T03:24:07;2.97;;;1.60;;
66487;SDS011;53304;54.550;18.526;2023-03-29T03:26:35;4.72;;;1.80;;
66487;SDS011;53304;54.550;18.526;2023-03-29T03:29:04;4.57;;;1.70;;
66487;SDS011;53304;54.550;18.526;2023-03-29T03:31:32;3.25;;;1.45;;
66487;SDS011;53304;54.550;18.526;2023-03-29T03:33:58;3.38;;;1.52;;
66487;SDS011;53304;54.550;18.526;2023-03-29T03:36:26;3.15;;;1.60;;
66487;SDS011;53304;54.550;18.526;2023-03-29T03:38:53;4.05;;;1.77;;
66487;SDS011;53304;54.550;18.526;2023-03-29T03:41:19;4.10;;;1.58;;
66487;SDS011;53304;54.550;18.526;2023-03-29T03:43:47;3.75;;;1.80;;
66487;SDS011;53304;54.550;18.526;2023-03-29T03:46:16;3.60;;;1.55;;
66487;SDS011;53304;54.550;18.526;2023-03-29T03:48:44;4.18;;;1.80;;
66487;SDS011;53304;54.550;18.526;2023-03-29T03:51:11;4.07;;;1.70;;
66487;SDS011;53304;54.550;18.526;2023-03-29T03:53:39;4.65;;;1.77;;
66487;SDS011;53304;54.550;18.526;2023-03-29T03:56:05;2.92;;;1.63;;
66487;SDS011;53304;54.550;18.526;2023-03-29T03:58:34;3.40;;;1.50;;
66487;SDS011;53304;54.550;18.526;2023-03-29T04:01:04;3.50;;;1.65;;
66487;SDS011;53304;54.550;18.526;2023-03-29T04:03:35;4.13;;;1.60;;
66487;SDS011;53304;54.550;18.526;2023-03-29T04:06:01;4.75;;;1.88;;
66487;SDS011;53304;54.550;18.526;2023-03-29T04:08:30;3.08;;;1.63;;
66487;SDS011;53304;54.550;18.526;2023-03-29T04:11:00;5.25;;;1.80;;
66487;SDS011;53304;54.550;18.526;2023-03-29T04:13:30;3.50;;;1.77;;
66487;SDS011;53304;54.550;18.526;2023-03-29T04:16:01;4.32;;;1.92;;
66487;SDS011;53304;54.550;18.526;2023-03-29T04:18:27;3.45;;;1.60;;
66487;SDS011;53304;54.550;18.526;2023-03-29T04:20:55;4.00;;;1.63;;
66487;SDS011;53304;54.550;18.526;2023-03-29T04:23:23;3.60;;;1.55;;
66487;SDS011;53304;54.550;18.526;2023-03-29T04:25:51;3.53;;;1.67;;
66487;SDS011;53304;54.550;18.526;2023-03-29T04:28:18;3.67;;;1.67;;
66487;SDS011;53304;54.550;18.526;2023-03-29T04:30:46;3.55;;;1.60;;
66487;SDS011;53304;54.550;18.526;2023-03-29T04:33:14;4.28;;;1.83;;
66487;SDS011;53304;54.550;18.526;2023-03-29T04:35:40;3.25;;;1.63;;
66487;SDS011;53304;54.550;18.526;2023-03-29T04:38:07;3.22;;;1.58;;
66487;SDS011;53304;54.550;18.526;2023-03-29T04:40:35;2.85;;;1.50;;
66487;SDS011;53304;54.550;18.526;2023-03-29T04:43:03;4.32;;;1.50;;
66487;SDS011;53304;54.550;18.526;2023-03-29T04:45:31;5.78;;;1.65;;
66487;SDS011;53304;54.550;18.526;2023-03-29T04:48:01;4.22;;;1.85;;
66487;SDS011;53304;54.550;18.526;2023-03-29T04:50:32;3.70;;;1.67;;
66487;SDS011;53304;54.550;18.526;2023-03-29T04:52:58;3.13;;;1.63;;
66487;SDS011;53304;54.550;18.526;2023-03-29T04:55:26;3.78;;;1.60;;
66487;SDS011;53304;54.550;18.526;2023-03-29T04:57:52;3.63;;;1.60;;
66487;SDS011;53304;54.550;18.526;2023-03-29T05:00:20;4.57;;;2.00;;
66487;SDS011;53304;54.550;18.526;2023-03-29T05:02:51;4.05;;;1.83;;
66487;SDS011;53304;54.550;18.526;2023-03-29T05:05:21;4.28;;;1.80;;
66487;SDS011;53304;54.550;18.526;2023-03-29T05:07:47;3.60;;;1.80;;
66487;SDS011;53304;54.550;18.526;2023-03-29T05:10:15;4.95;;;1.92;;
66487;SDS011;53304;54.550;18.526;2023-03-29T05:12:40;3.35;;;1.70;;
66487;SDS011;53304;54.550;18.526;2023-03-29T05:15:06;4.00;;;1.70;;
66487;SDS011;53304;54.550;18.526;2023-03-29T05:17:32;4.90;;;2.10;;
66487;SDS011;53304;54.550;18.526;2023-03-29T05:20:00;4.40;;;1.70;;
66487;SDS011;53304;54.550;18.526;2023-03-29T05:22:31;4.15;;;1.90;;
66487;SDS011;53304;54.550;18.526;2023-03-29T05:24:56;4.03;;;2.00;;
66487;SDS011;53304;54.550;18.526;2023-03-29T05:27:23;5.78;;;1.85;;
66487;SDS011;53304;54.550;18.526;2023-03-29T05:29:51;4.03;;;2.05;;
66487;SDS011;53304;54.550;18.526;2023-03-29T05:32:17;3.85;;;1.65;;
66487;SDS011;53304;54.550;18.526;2023-03-29T05:34:42;4.30;;;1.73;;
66487;SDS011;53304;54.550;18.526;2023-03-29T05:37:10;4.60;;;1.83;;
66487;SDS011;53304;54.550;18.526;2023-03-29T05:39:37;4.82;;;1.75;;
66487;SDS011;53304;54.550;18.526;2023-03-29T05:42:03;4.90;;;2.05;;
66487;SDS011;53304;54.550;18.526;2023-03-29T05:44:28;4.00;;;2.13;;
66487;SDS011;53304;54.550;18.526;2023-03-29T05:46:54;5.07;;;1.95;;
66487;SDS011;53304;54.550;18.526;2023-03-29T05:49:22;3.80;;;1.80;;
66487;SDS011;53304;54.550;18.526;2023-03-29T05:51:50;5.13;;;2.10;;
66487;SDS011;53304;54.550;18.526;2023-03-29T05:54:23;6.32;;;2.10;;
66487;SDS011;53304;54.550;18.526;2023-03-29T05:56:49;7.93;;;2.00;;
66487;SDS011;53304;54.550;18.526;2023-03-29T05:59:15;8.52;;;2.30;;
66487;SDS011;53304;54.550;18.526;2023-03-29T06:01:43;9.80;;;2.08;;
66487;SDS011;53304;54.550;18.526;2023-03-29T06:04:11;6.50;;;2.10;;
66487;SDS011;53304;54.550;18.526;2023-03-29T06:06:41;4.82;;;1.90;;
66487;SDS011;53304;54.550;18.526;2023-03-29T06:09:09;8.57;;;2.25;;
66487;SDS011;53304;54.550;18.526;2023-03-29T06:11:34;6.97;;;2.20;;
66487;SDS011;53304;54.550;18.526;2023-03-29T06:14:03;10.18;;;2.25;;
66487;SDS011;53304;54.550;18.526;2023-03-29T06:16:28;7.80;;;2.03;;
66487;SDS011;53304;54.550;18.526;2023-03-29T06:18:57;11.98;;;3.22;;
66487;SDS011;53304;54.550;18.526;2023-03-29T06:21:23;8.88;;;2.63;;
66487;SDS011;53304;54.550;18.526;2023-03-29T06:23:50;8.98;;;2.63;;
66487;SDS011;53304;54.550;18.526;2023-03-29T06:26:16;8.00;;;2.45;;
66487;SDS011;53304;54.550;18.526;2023-03-29T06:28:41;5.40;;;2.55;;
66487;SDS011;53304;54.550;18.526;2023-03-29T06:31:07;6.13;;;2.50;;
66487;SDS011;53304;54.550;18.526;2023-03-29T06:33:34;5.35;;;2.58;;
66487;SDS011;53304;54.550;18.526;2023-03-29T06:36:02;9.73;;;2.83;;
66487;SDS011;53304;54.550;18.526;2023-03-29T06:38:28;5.60;;;2.95;;
66487;SDS011;53304;54.550;18.526;2023-03-29T06:41:05;7.43;;;2.70;;
66487;SDS011;53304;54.550;18.526;2023-03-29T06:43:35;6.28;;;2.80;;
66487;SDS011;53304;54.550;18.526;2023-03-29T06:46:02;5.65;;;2.60;;
66487;SDS011;53304;54.550;18.526;2023-03-29T06:48:36;5.85;;;2.60;;
66487;SDS011;53304;54.550;18.526;2023-03-29T06:51:05;6.93;;;2.85;;
66487;SDS011;53304;54.550;18.526;2023-03-29T06:53:32;7.60;;;3.22;;
66487;SDS011;53304;54.550;18.526;2023-03-29T06:55:58;6.28;;;2.65;;
66487;SDS011;53304;54.550;18.526;2023-03-29T06:58:25;7.35;;;2.70;;
66487;SDS011;53304;54.550;18.526;2023-03-29T07:00:51;5.50;;;2.50;;
66487;SDS011;53304;54.550;18.526;2023-03-29T07:03:19;6.35;;;2.50;;
66487;SDS011;53304;54.550;18.526;2023-03-29T07:05:47;5.82;;;2.80;;
66487;SDS011;53304;54.550;18.526;2023-03-29T07:08:15;7.22;;;3.10;;
66487;SDS011;53304;54.550;18.526;2023-03-29T07:10:44;8.32;;;2.97;;
66487;SDS011;53304;54.550;18.526;2023-03-29T07:13:11;10.68;;;3.08;;
66487;SDS011;53304;54.550;18.526;2023-03-29T07:15:39;9.93;;;3.58;;
66487;SDS011;53304;54.550;18.526;2023-03-29T07:18:06;9.60;;;2.95;;
66487;SDS011;53304;54.550;18.526;2023-03-29T07:20:35;7.28;;;3.05;;
66487;SDS011;53304;54.550;18.526;2023-03-29T07:23:03;9.80;;;3.03;;
66487;SDS011;53304;54.550;18.526;2023-03-29T07:25:32;5.68;;;2.72;;
66487;SDS011;53304;54.550;18.526;2023-03-29T07:28:00;10.02;;;2.80;;
66487;SDS011;53304;54.550;18.526;2023-03-29T07:30:26;9.27;;;3.08;;
66487;SDS011;53304;54.550;18.526;2023-03-29T07:32:55;6.68;;;2.50;;
66487;SDS011;53304;54.550;18.526;2023-03-29T07:35:22;7.82;;;2.72;;
66487;SDS011;53304;54.550;18.526;2023-03-29T07:37:54;6.82;;;2.35;;
66487;SDS011;53304;54.550;18.526;2023-03-29T07:40:19;9.35;;;2.60;;
66487;SDS011;53304;54.550;18.526;2023-03-29T07:42:49;8.80;;;2.45;;
66487;SDS011;53304;54.550;18.526;2023-03-29T07:45:18;7.78;;;2.75;;
66487;SDS011;53304;54.550;18.526;2023-03-29T07:47:48;11.30;;;3.17;;
66487;SDS011;53304;54.550;18.526;2023-03-29T07:50:17;15.10;;;3.60;;
66487;SDS011;53304;54.550;18.526;2023-03-29T07:52:45;7.68;;;3.00;;
66487;SDS011;53304;54.550;18.526;2023-03-29T07:55:13;11.63;;;2.90;;
66487;SDS011;53304;54.550;18.526;2023-03-29T07:57:41;7.45;;;2.72;;
66487;SDS011;53304;54.550;18.526;2023-03-29T08:00:08;6.03;;;2.53;;
66487;SDS011;53304;54.550;18.526;2023-03-29T08:02:43;5.70;;;2.90;;
66487;SDS011;53304;54.550;18.526;2023-03-29T08:05:10;7.30;;;3.08;;
66487;SDS011;53304;54.550;18.526;2023-03-29T08:07:37;7.03;;;2.80;;
66487;SDS011;53304;54.550;18.526;2023-03-29T08:10:05;6.78;;;2.90;;
66487;SDS011;53304;54.550;18.526;2023-03-29T08:12:33;5.63;;;2.65;;
66487;SDS011;53304;54.550;18.526;2023-03-29T08:14:58;7.22;;;2.72;;
66487;SDS011;53304;54.550;18.526;2023-03-29T08:17:26;5.88;;;2.50;;
66487;SDS011;53304;54.550;18.526;2023-03-29T08:19:51;5.95;;;2.40;;
66487;SDS011;53304;54.550;18.526;2023-03-29T08:22:19;7.95;;;2.80;;
66487;SDS011;53304;54.550;18.526;2023-03-29T08:24:46;6.13;;;2.53;;
66487;SDS011;53304;54.550;18.526;2023-03-29T08:27:11;7.55;;;2.80;;
66487;SDS011;53304;54.550;18.526;2023-03-29T08:29:37;7.07;;;2.60;;
66487;SDS011;53304;54.550;18.526;2023-03-29T08:32:02;7.75;;;2.70;;
66487;SDS011;53304;54.550;18.526;2023-03-29T08:34:32;5.63;;;2.40;;
66487;SDS011;53304;54.550;18.526;2023-03-29T08:36:59;5.20;;;2.38;;
66487;SDS011;53304;54.550;18.526;2023-03-29T08:39:30;7.57;;;2.72;;
66487;SDS011;53304;54.550;18.526;2023-03-29T08:50:44;9.00;;;2.78;;
66487;SDS011;53304;54.550;18.526;2023-03-29T08:53:14;5.30;;;2.20;;
66487;SDS011;53304;54.550;18.526;2023-03-29T08:55:49;6.43;;;2.35;;
66487;SDS011;53304;54.550;18.526;2023-03-29T08:58:16;4.85;;;2.28;;
66487;SDS011;53304;54.550;18.526;2023-03-29T09:00:51;6.65;;;2.53;;
66487;SDS011;53304;54.550;18.526;2023-03-29T09:03:22;5.80;;;2.42;;
66487;SDS011;53304;54.550;18.526;2023-03-29T09:05:53;6.22;;;2.30;;
66487;SDS011;53304;54.550;18.526;2023-03-29T09:08:21;6.20;;;2.30;;
66487;SDS011;53304;54.550;18.526;2023-03-29T09:21:28;6.15;;;2.40;;
66487;SDS011;53304;54.550;18.526;2023-03-29T09:33:11;4.82;;;1.83;;
66487;SDS011;53304;54.550;18.526;2023-03-29T09:38:11;9.25;;;2.65;;
66487;SDS011;53304;54.550;18.526;2023-03-29T09:43:07;6.10;;;2.00;;
66487;SDS011;53304;54.550;18.526;2023-03-29T09:45:36;6.28;;;2.60;;
66487;SDS011;53304;54.550;18.526;2023-03-29T09:53:06;8.45;;;2.72;;
66487;SDS011;53304;54.550;18.526;2023-03-29T09:55:32;13.30;;;2.60;;
66487;SDS011;53304;54.550;18.526;2023-03-29T09:58:19;8.90;;;2.20;;
66487;SDS011;53304;54.550;18.526;2023-03-29T10:00:47;7.65;;;2.20;;
66487;SDS011;53304;54.550;18.526;2023-03-29T10:03:25;5.68;;;2.05;;
66487;SDS011;53304;54.550;18.526;2023-03-29T10:05:52;14.95;;;2.92;;
66487;SDS011;53304;54.550;18.526;2023-03-29T10:08:21;8.50;;;2.58;;
66487;SDS011;53304;54.550;18.526;2023-03-29T10:10:52;5.23;;;2.03;;
66487;SDS011;53304;54.550;18.526;2023-03-29T10:13:28;6.50;;;1.95;;
66487;SDS011;53304;54.550;18.526;2023-03-29T10:16:03;5.60;;;2.25;;
66487;SDS011;53304;54.550;18.526;2023-03-29T10:18:30;4.95;;;2.20;;
66487;SDS011;53304;54.550;18.526;2023-03-29T10:21:00;5.30;;;2.35;;
66487;SDS011;53304;54.550;18.526;2023-03-29T10:23:30;4.00;;;1.80;;
66487;SDS011;53304;54.550;18.526;2023-03-29T10:25:57;5.22;;;2.10;;
66487;SDS011;53304;54.550;18.526;2023-03-29T10:28:22;6.18;;;1.92;;
66487;SDS011;53304;54.550;18.526;2023-03-29T10:30:54;5.32;;;2.20;;
66487;SDS011;53304;54.550;18.526;2023-03-29T10:33:23;5.95;;;2.13;;
66487;SDS011;53304;54.550;18.526;2023-03-29T10:35:54;3.90;;;1.88;;
66487;SDS011;53304;54.550;18.526;2023-03-29T10:38:23;4.15;;;2.03;;
66487;SDS011;53304;54.550;18.526;2023-03-29T10:40:52;4.10;;;1.92;;
66487;SDS011;53304;54.550;18.526;2023-03-29T10:43:23;6.13;;;2.30;;
66487;SDS011;53304;54.550;18.526;2023-03-29T10:45:54;4.15;;;1.95;;
66487;SDS011;53304;54.550;18.526;2023-03-29T10:48:27;4.78;;;2.25;;
66487;SDS011;53304;54.550;18.526;2023-03-29T10:50:56;4.60;;;1.92;;
66487;SDS011;53304;54.550;18.526;2023-03-29T10:53:29;5.60;;;2.03;;
66487;SDS011;53304;54.550;18.526;2023-03-29T11:07:08;5.57;;;1.90;;
66487;SDS011;53304;54.550;18.526;2023-03-29T11:09:53;5.25;;;1.65;;
66487;SDS011;53304;54.550;18.526;2023-03-29T11:12:32;5.95;;;1.88;;
66487;SDS011;53304;54.550;18.526;2023-03-29T11:15:14;6.63;;;1.90;;
66487;SDS011;53304;54.550;18.526;2023-03-29T11:20:52;4.57;;;1.80;;
66487;SDS011;53304;54.550;18.526;2023-03-29T11:42:04;5.03;;;1.90;;
66487;SDS011;53304;54.550;18.526;2023-03-29T11:44:41;12.38;;;2.38;;
66487;SDS011;53304;54.550;18.526;2023-03-29T11:49:44;5.65;;;1.98;;
66487;SDS011;53304;54.550;18.526;2023-03-29T11:54:59;7.70;;;2.00;;
66487;SDS011;53304;54.550;18.526;2023-03-29T11:57:36;3.70;;;1.60;;
66487;SDS011;53304;54.550;18.526;2023-03-29T12:07:53;6.03;;;1.90;;
66487;SDS011;53304;54.550;18.526;2023-03-29T12:10:35;5.10;;;1.90;;
66487;SDS011;53304;54.550;18.526;2023-03-29T12:13:11;4.70;;;1.60;;
66487;SDS011;53304;54.550;18.526;2023-03-29T12:15:50;4.88;;;1.80;;
66487;SDS011;53304;54.550;18.526;2023-03-29T12:18:34;4.55;;;1.50;;
66487;SDS011;53304;54.550;18.526;2023-03-29T12:21:03;3.08;;;1.58;;
66487;SDS011;53304;54.550;18.526;2023-03-29T12:23:33;5.65;;;1.73;;
66487;SDS011;53304;54.550;18.526;2023-03-29T12:26:03;5.57;;;1.70;;
66487;SDS011;53304;54.550;18.526;2023-03-29T12:39:32;4.32;;;1.80;;
66487;SDS011;53304;54.550;18.526;2023-03-29T12:42:11;3.47;;;1.60;;
66487;SDS011;53304;54.550;18.526;2023-03-29T12:44:38;4.93;;;1.73;;
66487;SDS011;53304;54.550;18.526;2023-03-29T12:47:21;3.20;;;1.40;;
66487;SDS011;53304;54.550;18.526;2023-03-29T12:49:51;2.53;;;1.30;;
66487;SDS011;53304;54.550;18.526;2023-03-29T12:52:40;4.60;;;1.58;;
66487;SDS011;53304;54.550;18.526;2023-03-29T12:58:19;7.47;;;1.77;;
66487;SDS011;53304;54.550;18.526;2023-03-29T13:00:54;4.88;;;1.75;;
66487;SDS011;53304;54.550;18.526;2023-03-29T13:03:28;3.72;;;1.58;;
66487;SDS011;53304;54.550;18.526;2023-03-29T13:05:59;3.97;;;1.63;;
66487;SDS011;53304;54.550;18.526;2023-03-29T13:08:33;5.97;;;1.92;;
66487;SDS011;53304;54.550;18.526;2023-03-29T13:11:00;4.63;;;1.67;;
66487;SDS011;53304;54.550;18.526;2023-03-29T13:13:35;4.90;;;1.70;;
66487;SDS011;53304;54.550;18.526;2023-03-29T13:16:47;4.28;;;1.58;;
66487;SDS011;53304;54.550;18.526;2023-03-29T13:35:01;3.30;;;1.50;;
66487;SDS011;53304;54.550;18.526;2023-03-29T13:43:01;3.13;;;1.35;;
66487;SDS011;53304;54.550;18.526;2023-03-29T13:45:43;4.07;;;1.42;;
66487;SDS011;53304;54.550;18.526;2023-03-29T13:50:58;3.15;;;1.23;;
66487;SDS011;53304;54.550;18.526;2023-03-29T13:56:57;5.28;;;1.50;;
66487;SDS011;53304;54.550;18.526;2023-03-29T13:59:30;6.15;;;2.00;;
66487;SDS011;53304;54.550;18.526;2023-03-29T14:02:05;4.50;;;1.30;;
66487;SDS011;53304;54.550;18.526;2023-03-29T14:04:42;3.03;;;1.42;;
66487;SDS011;53304;54.550;18.526;2023-03-29T14:07:10;5.40;;;1.60;;
66487;SDS011;53304;54.550;18.526;2023-03-29T14:09:44;5.63;;;1.60;;
66487;SDS011;53304;54.550;18.526;2023-03-29T14:12:14;4.30;;;1.30;;
66487;SDS011;53304;54.550;18.526;2023-03-29T14:14:41;4.53;;;1.52;;
66487;SDS011;53304;54.550;18.526;2023-03-29T14:17:10;8.30;;;1.85;;
66487;SDS011;53304;54.550;18.526;2023-03-29T14:19:40;4.43;;;1.50;;
66487;SDS011;53304;54.550;18.526;2023-03-29T14:22:07;5.47;;;1.80;;
66487;SDS011;53304;54.550;18.526;2023-03-29T14:24:51;5.25;;;1.30;;
66487;SDS011;53304;54.550;18.526;2023-03-29T14:27:18;2.55;;;1.20;;
66487;SDS011;53304;54.550;18.526;2023-03-29T14:29:48;3.53;;;1.48;;
66487;SDS011;53304;54.550;18.526;2023-03-29T14:32:19;2.78;;;1.20;;
66487;SDS011;53304;54.550;18.526;2023-03-29T14:34:51;3.65;;;1.52;;
66487;SDS011;53304;54.550;18.526;2023-03-29T14:37:27;2.85;;;1.30;;
66487;SDS011;53304;54.550;18.526;2023-03-29T14:39:54;4.05;;;1.50;;
66487;SDS011;53304;54.550;18.526;2023-03-29T14:42:27;2.67;;;1.20;;
66487;SDS011;53304;54.550;18.526;2023-03-29T14:45:00;3.72;;;1.50;;
66487;SDS011;53304;54.550;18.526;2023-03-29T14:47:28;2.35;;;1.20;;
66487;SDS011;53304;54.550;18.526;2023-03-29T14:49:55;2.47;;;1.30;;
66487;SDS011;53304;54.550;18.526;2023-03-29T14:52:24;2.58;;;1.15;;
66487;SDS011;53304;54.550;18.526;2023-03-29T14:54:53;4.53;;;1.42;;
66487;SDS011;53304;54.550;18.526;2023-03-29T14:57:23;4.30;;;1.50;;
66487;SDS011;53304;54.550;18.526;2023-03-29T14:59:52;2.15;;;1.25;;
66487;SDS011;53304;54.550;18.526;2023-03-29T15:04:54;4.45;;;1.48;;
66487;SDS011;53304;54.550;18.526;2023-03-29T15:07:21;3.00;;;1.40;;
66487;SDS011;53304;54.550;18.526;2023-03-29T15:09:49;7.32;;;1.42;;
66487;SDS011;53304;54.550;18.526;2023-03-29T15:12:15;4.53;;;1.50;;
66487;SDS011;53304;54.550;18.526;2023-03-29T15:14:41;4.10;;;1.52;;
66487;SDS011;53304;54.550;18.526;2023-03-29T15:17:40;3.33;;;1.30;;
66487;SDS011;53304;54.550;18.526;2023-03-29T15:20:02;3.35;;;1.38;;
66487;SDS011;53304;54.550;18.526;2023-03-29T15:22:39;3.65;;;1.50;;
66487;SDS011;53304;54.550;18.526;2023-03-29T15:25:13;4.88;;;1.40;;
66487;SDS011;53304;54.550;18.526;2023-03-29T15:27:47;2.95;;;1.30;;
66487;SDS011;53304;54.550;18.526;2023-03-29T15:30:15;3.45;;;1.50;;
66487;SDS011;53304;54.550;18.526;2023-03-29T15:32:41;4.45;;;1.52;;
66487;SDS011;53304;54.550;18.526;2023-03-29T15:35:16;4.30;;;1.73;;
66487;SDS011;53304;54.550;18.526;2023-03-29T15:37:50;4.25;;;1.50;;
66487;SDS011;53304;54.550;18.526;2023-03-29T15:40:21;3.30;;;1.35;;
66487;SDS011;53304;54.550;18.526;2023-03-29T15:42:52;3.65;;;1.40;;
66487;SDS011;53304;54.550;18.526;2023-03-29T15:45:18;4.32;;;1.52;;
66487;SDS011;53304;54.550;18.526;2023-03-29T15:47:45;3.97;;;1.83;;
66487;SDS011;53304;54.550;18.526;2023-03-29T15:50:11;4.22;;;1.60;;
66487;SDS011;53304;54.550;18.526;2023-03-29T15:52:37;3.05;;;1.25;;
66487;SDS011;53304;54.550;18.526;2023-03-29T15:55:05;4.75;;;1.35;;
66487;SDS011;53304;54.550;18.526;2023-03-29T15:57:34;4.35;;;1.50;;
66487;SDS011;53304;54.550;18.526;2023-03-29T16:00:03;4.63;;;1.65;;
66487;SDS011;53304;54.550;18.526;2023-03-29T16:02:34;5.38;;;1.70;;
66487;SDS011;53304;54.550;18.526;2023-03-29T16:04:59;4.75;;;1.60;;
66487;SDS011;53304;54.550;18.526;2023-03-29T16:07:25;7.00;;;1.95;;
66487;SDS011;53304;54.550;18.526;2023-03-29T16:09:51;6.63;;;2.13;;
66487;SDS011;53304;54.550;18.526;2023-03-29T16:12:16;7.05;;;2.05;;
66487;SDS011;53304;54.550;18.526;2023-03-29T16:14:41;4.60;;;2.20;;
66487;SDS011;53304;54.550;18.526;2023-03-29T16:17:07;4.90;;;2.08;;
66487;SDS011;53304;54.550;18.526;2023-03-29T16:19:35;6.60;;;2.40;;
66487;SDS011;53304;54.550;18.526;2023-03-29T16:22:05;5.90;;;1.88;;
66487;SDS011;53304;54.550;18.526;2023-03-29T16:24:31;3.95;;;1.98;;
66487;SDS011;53304;54.550;18.526;2023-03-29T16:26:58;4.20;;;1.90;;
66487;SDS011;53304;54.550;18.526;2023-03-29T16:29:26;3.95;;;2.03;;
66487;SDS011;53304;54.550;18.526;2023-03-29T16:31:55;4.57;;;1.77;;
66487;SDS011;53304;54.550;18.526;2023-03-29T16:34:23;5.75;;;1.95;;
66487;SDS011;53304;54.550;18.526;2023-03-29T16:36:52;5.40;;;2.00;;
66487;SDS011;53304;54.550;18.526;2023-03-29T16:39:17;5.55;;;2.20;;
66487;SDS011;53304;54.550;18.526;2023-03-29T16:41:45;5.28;;;1.98;;
66487;SDS011;53304;54.550;18.526;2023-03-29T16:44:19;4.68;;;2.33;;
66487;SDS011;53304;54.550;18.526;2023-03-29T16:46:51;4.93;;;2.17;;
66487;SDS011;53304;54.550;18.526;2023-03-29T16:49:17;5.22;;;2.17;;
66487;SDS011;53304;54.550;18.526;2023-03-29T16:51:44;5.15;;;2.13;;
66487;SDS011;53304;54.550;18.526;2023-03-29T16:54:10;5.18;;;2.05;;
66487;SDS011;53304;54.550;18.526;2023-03-29T16:56:36;5.20;;;2.20;;
66487;SDS011;53304;54.550;18.526;2023-03-29T16:59:02;5.57;;;1.92;;
66487;SDS011;53304;54.550;18.526;2023-03-29T17:01:30;5.95;;;2.03;;
66487;SDS011;53304;54.550;18.526;2023-03-29T17:04:00;6.50;;;1.90;;
66487;SDS011;53304;54.550;18.526;2023-03-29T17:06:26;4.85;;;2.08;;
66487;SDS011;53304;54.550;18.526;2023-03-29T17:08:51;4.20;;;1.95;;
66487;SDS011;53304;54.550;18.526;2023-03-29T17:11:19;4.10;;;1.98;;
66487;SDS011;53304;54.550;18.526;2023-03-29T17:13:47;4.97;;;1.80;;
66487;SDS011;53304;54.550;18.526;2023-03-29T17:16:14;4.60;;;1.85;;
66487;SDS011;53304;54.550;18.526;2023-03-29T17:18:44;3.75;;;1.73;;
66487;SDS011;53304;54.550;18.526;2023-03-29T17:21:12;6.70;;;2.20;;